createdAt,value
2023-03-30T00:00:10.000Z,1004.9
2023-03-30T00:01:26.000Z,1005
2023-03-30T00:02:41.000Z,1005
2023-03-30T00:03:56.754Z,1004.9
2023-03-30T00:05:11.912Z,1005
2023-03-30T00:06:27.000Z,1004.9
2023-03-30T00:07:43.000Z,1004.9
2023-03-30T00:09:00.000Z,1004.9
2023-03-30T00:10:16.492Z,1004.9
2023-03-30T00:11:32.000Z,1004.9
2023-03-30T00:12:48.000Z,1004.9
2023-03-30T00:14:04.000Z,1004.8
2023-03-30T00:15:20.000Z,1004.9
2023-03-30T00:16:36.000Z,1004.8
2023-03-30T00:17:53.000Z,1004.8
2023-03-30T00:19:09.000Z,1004.7
2023-03-30T00:20:25.000Z,1004.7
2023-03-30T00:21:40.000Z,1004.7
2023-03-30T00:22:55.000Z,1004.7
2023-03-30T00:24:11.000Z,1004.7
2023-03-30T00:25:28.279Z,1004.6
2023-03-30T00:26:44.000Z,1004.5
2023-03-30T00:28:00.000Z,1004.5
2023-03-30T00:29:16.000Z,1004.4
2023-03-30T00:30:31.000Z,1004.5
2023-03-30T00:31:46.000Z,1004.4
2023-03-30T00:33:02.000Z,1004.3
2023-03-30T00:34:19.000Z,1004.4
2023-03-30T00:35:35.000Z,1004.3
2023-03-30T00:36:51.000Z,1004.3
2023-03-30T00:38:07.000Z,1004.3
2023-03-30T00:39:23.000Z,1004.3
2023-03-30T00:40:40.095Z,1004.3
2023-03-30T00:41:55.000Z,1004.3
2023-03-30T00:43:12.358Z,1004.2
2023-03-30T00:44:28.000Z,1004.3
2023-03-30T00:45:44.000Z,1004.3
2023-03-30T00:47:00.000Z,1004.3
2023-03-30T00:48:15.000Z,1004.3
2023-03-30T00:49:32.104Z,1004.4
2023-03-30T00:50:48.000Z,1004.4
2023-03-30T00:52:04.000Z,1004.3
2023-03-30T00:53:20.540Z,1004.3
2023-03-30T00:54:36.000Z,1004.3
2023-03-30T00:55:52.000Z,1004.3
2023-03-30T00:57:07.000Z,1004.2
2023-03-30T00:58:22.000Z,1004.1
2023-03-30T00:59:38.000Z,1004.1
2023-03-30T01:00:53.000Z,1004
2023-03-30T01:02:09.000Z,1004
2023-03-30T01:03:25.000Z,1004
2023-03-30T01:04:41.000Z,1004
2023-03-30T01:05:58.081Z,1003.9
2023-03-30T01:07:14.000Z,1003.9
2023-03-30T01:08:30.373Z,1004
2023-03-30T01:09:46.000Z,1003.9
2023-03-30T01:11:02.000Z,1003.9
2023-03-30T01:12:18.000Z,1003.9
2023-03-30T01:13:34.960Z,1003.8
2023-03-30T01:14:50.000Z,1003.9
2023-03-30T01:16:07.000Z,1003.8
2023-03-30T01:17:22.000Z,1003.8
2023-03-30T01:18:38.000Z,1003.7
2023-03-30T01:19:54.000Z,1003.7
2023-03-30T01:21:10.000Z,1003.6
2023-03-30T01:22:26.000Z,1003.6
2023-03-30T01:23:42.000Z,1003.6
2023-03-30T01:24:59.000Z,1003.5
2023-03-30T01:26:14.000Z,1003.6
2023-03-30T01:27:29.000Z,1003.4
2023-03-30T01:28:44.000Z,1003.5
2023-03-30T01:29:59.000Z,1003.4
2023-03-30T01:31:15.000Z,1003.4
2023-03-30T01:33:48.000Z,1003.4
2023-03-30T01:35:04.000Z,1003.3
2023-03-30T01:36:20.000Z,1003.3
2023-03-30T01:37:36.000Z,1003.3
2023-03-30T01:38:52.000Z,1003.3
2023-03-30T01:40:08.000Z,1003.2
2023-03-30T01:41:25.000Z,1003.2
2023-03-30T01:42:41.000Z,1003.2
2023-03-30T01:43:57.000Z,1003.1
2023-03-30T01:45:13.000Z,1003
2023-03-30T01:46:28.000Z,1003
2023-03-30T01:47:45.007Z,1003
2023-03-30T01:49:00.000Z,1002.9
2023-03-30T01:50:17.000Z,1002.9
2023-03-30T01:51:33.000Z,1002.9
2023-03-30T01:52:49.000Z,1002.9
2023-03-30T01:54:05.000Z,1003
2023-03-30T01:55:21.000Z,1003
2023-03-30T01:56:37.042Z,1002.9
2023-03-30T01:57:52.209Z,1003
2023-03-30T01:59:08.000Z,1002.9
2023-03-30T02:00:23.000Z,1002.8
2023-03-30T02:01:38.000Z,1002.8
2023-03-30T02:02:54.000Z,1002.8
2023-03-30T02:04:10.980Z,1002.8
2023-03-30T02:05:26.000Z,1002.8
2023-03-30T02:06:43.000Z,1002.7
2023-03-30T02:07:59.421Z,1002.6
2023-03-30T02:09:15.558Z,1002.6
2023-03-30T02:10:31.000Z,1002.6
2023-03-30T02:11:47.890Z,1002.6
2023-03-30T02:13:04.001Z,1002.5
2023-03-30T02:14:19.000Z,1002.5
2023-03-30T02:15:36.000Z,1002.5
2023-03-30T02:16:52.000Z,1002.4
2023-03-30T02:18:08.000Z,1002.4
2023-03-30T02:19:23.000Z,1002.4
2023-03-30T02:20:39.000Z,1002.4
2023-03-30T02:21:55.000Z,1002.3
2023-03-30T02:23:11.000Z,1002.3
2023-03-30T02:24:28.000Z,1002.3
2023-03-30T02:25:44.469Z,1002.3
2023-03-30T02:26:59.000Z,1002.2
2023-03-30T02:28:14.806Z,1002.2
2023-03-30T02:29:29.000Z,1002.2
2023-03-30T02:30:44.000Z,1002.2
2023-03-30T02:32:01.000Z,1002.2
2023-03-30T02:33:17.000Z,1002.2
2023-03-30T02:34:33.000Z,1002.1
2023-03-30T02:35:49.000Z,1002
2023-03-30T02:37:05.000Z,1002.1
2023-03-30T02:38:21.000Z,1002
2023-03-30T02:39:37.000Z,1002
2023-03-30T02:40:54.000Z,1002
2023-03-30T02:42:10.000Z,1002
2023-03-30T02:43:26.596Z,1001.8
2023-03-30T02:44:42.000Z,1001.9
2023-03-30T02:45:58.879Z,1001.8
2023-03-30T02:47:14.042Z,1001.8
2023-03-30T02:48:29.000Z,1001.8
2023-03-30T02:49:46.000Z,1001.7
2023-03-30T02:51:02.000Z,1001.7
2023-03-30T02:52:18.000Z,1001.7
2023-03-30T02:53:34.000Z,1001.6
2023-03-30T02:54:50.000Z,1001.7
2023-03-30T02:56:06.000Z,1001.7
2023-03-30T02:57:22.000Z,1001.6
2023-03-30T02:58:37.000Z,1001.7
2023-03-30T02:59:53.563Z,1001.6
2023-03-30T03:01:09.000Z,1001.6
2023-03-30T03:02:25.833Z,1001.6
2023-03-30T03:03:41.000Z,1001.6
2023-03-30T03:04:57.000Z,1001.5
2023-03-30T03:06:14.000Z,1001.3
2023-03-30T03:07:30.000Z,1001.2
2023-03-30T03:08:46.000Z,1001.1
2023-03-30T03:10:02.707Z,1001
2023-03-30T03:11:18.000Z,1001.1
2023-03-30T03:12:34.000Z,1001.1
2023-03-30T03:13:50.000Z,1001.2
2023-03-30T03:15:06.000Z,1001.2
2023-03-30T03:16:22.000Z,1001.3
2023-03-30T03:17:38.598Z,1001.2
2023-03-30T03:18:54.000Z,1001.1
2023-03-30T03:20:10.000Z,1001.1
2023-03-30T03:21:26.000Z,1001
2023-03-30T03:22:42.000Z,1001
2023-03-30T03:23:58.349Z,1000.9
2023-03-30T03:25:13.510Z,1000.9
2023-03-30T03:26:28.000Z,1000.8
2023-03-30T03:27:43.000Z,1000.8
2023-03-30T03:28:58.000Z,1000.8
2023-03-30T03:30:13.000Z,1000.6
2023-03-30T03:31:30.000Z,1000.6
2023-03-30T03:32:46.000Z,1000.7
2023-03-30T03:34:02.000Z,1000.6
2023-03-30T03:35:18.000Z,1000.6
2023-03-30T03:36:34.000Z,1000.6
2023-03-30T03:37:50.000Z,1000.6
2023-03-30T03:39:07.201Z,1000.6
2023-03-30T03:40:23.341Z,1000.6
2023-03-30T03:41:39.000Z,1000.6
2023-03-30T03:42:55.000Z,1000.6
2023-03-30T03:44:11.000Z,1000.5
2023-03-30T03:45:27.000Z,1000.5
2023-03-30T03:46:42.000Z,1000.4
2023-03-30T03:47:59.000Z,1000.4
2023-03-30T03:49:15.000Z,1000.4
2023-03-30T03:50:31.000Z,1000.4
2023-03-30T03:51:47.000Z,1000.3
2023-03-30T03:53:03.807Z,1000.4
2023-03-30T03:54:19.953Z,1000.3
2023-03-30T03:55:34.000Z,1000.4
2023-03-30T03:56:50.288Z,1000.3
2023-03-30T03:58:06.000Z,1000.3
2023-03-30T03:59:22.000Z,1000.2
2023-03-30T04:00:38.000Z,1000.2
2023-03-30T04:01:54.000Z,1000.2
2023-03-30T04:03:11.012Z,1000.2
2023-03-30T04:04:26.000Z,1000.3
2023-03-30T04:05:43.309Z,1000.3
2023-03-30T04:06:59.454Z,1000.3
2023-03-30T04:08:15.000Z,1000.2
2023-03-30T04:09:31.000Z,1000.2
2023-03-30T04:10:47.000Z,1000.1
2023-03-30T04:12:03.000Z,1000.2
2023-03-30T04:13:18.000Z,1000.1
2023-03-30T04:14:35.000Z,1000.1
2023-03-30T04:15:51.000Z,1000.1
2023-03-30T04:17:07.000Z,1000
2023-03-30T04:18:23.000Z,1000
2023-03-30T04:19:39.000Z,1000
2023-03-30T04:20:55.000Z,1000
2023-03-30T04:22:11.000Z,1000
2023-03-30T04:23:26.406Z,999.9
2023-03-30T04:24:41.000Z,999.9
2023-03-30T04:25:56.000Z,999.8
2023-03-30T04:27:12.000Z,999.8
2023-03-30T04:28:28.000Z,999.8
2023-03-30T04:29:44.000Z,999.8
2023-03-30T04:31:01.000Z,999.8
2023-03-30T04:32:17.000Z,999.9
2023-03-30T04:33:33.000Z,999.9
2023-03-30T04:34:49.000Z,999.8
2023-03-30T04:36:05.000Z,999.7
2023-03-30T04:37:20.000Z,999.7
2023-03-30T04:38:37.208Z,999.7
2023-03-30T04:39:53.000Z,999.7
2023-03-30T04:41:09.000Z,999.6
2023-03-30T04:42:25.000Z,999.6
2023-03-30T04:43:41.000Z,999.6
2023-03-30T04:44:57.000Z,999.6
2023-03-30T04:46:13.000Z,999.5
2023-03-30T04:47:30.000Z,999.5
2023-03-30T04:48:46.000Z,999.5
2023-03-30T04:50:02.000Z,999.5
2023-03-30T04:51:17.000Z,999.4
2023-03-30T04:52:32.000Z,999.4
2023-03-30T04:53:47.000Z,999.4
2023-03-30T04:55:02.000Z,999.3
2023-03-30T04:56:19.000Z,999.2
2023-03-30T04:57:35.000Z,999.3
2023-03-30T04:58:51.000Z,999.3
2023-03-30T05:00:07.000Z,999.3
2023-03-30T05:01:23.000Z,999.3
2023-03-30T05:02:39.000Z,999.3
2023-03-30T05:03:55.000Z,999.3
2023-03-30T05:05:12.000Z,999.2
2023-03-30T05:06:28.000Z,999.2
2023-03-30T05:07:44.000Z,999.2
2023-03-30T05:09:00.000Z,999.2
2023-03-30T05:10:16.000Z,999.1
2023-03-30T05:11:31.000Z,999.1
2023-03-30T05:12:48.000Z,999.2
2023-03-30T05:14:04.000Z,999.2
2023-03-30T05:15:20.000Z,999.2
2023-03-30T05:16:36.000Z,999.2
2023-03-30T05:17:52.000Z,999.1
2023-03-30T05:19:08.000Z,999.1
2023-03-30T05:20:23.000Z,999
2023-03-30T05:21:39.000Z,999
2023-03-30T05:22:54.000Z,999
2023-03-30T05:24:09.000Z,999
2023-03-30T05:25:25.000Z,998.9
2023-03-30T05:26:41.000Z,998.9
2023-03-30T05:27:57.000Z,999
2023-03-30T05:29:13.000Z,999
2023-03-30T05:30:30.000Z,998.9
2023-03-30T05:31:46.000Z,998.9
2023-03-30T05:33:02.000Z,998.9
2023-03-30T05:34:18.000Z,998.9
2023-03-30T05:35:34.952Z,998.9
2023-03-30T05:36:50.000Z,998.9
2023-03-30T05:38:07.000Z,998.9
2023-03-30T05:39:23.000Z,998.8
2023-03-30T05:40:38.000Z,998.8
2023-03-30T05:41:54.000Z,998.8
2023-03-30T05:43:10.000Z,998.8
2023-03-30T05:44:26.000Z,998.8
2023-03-30T05:45:42.000Z,998.8
2023-03-30T05:46:59.000Z,998.8
2023-03-30T05:48:15.000Z,998.8
2023-03-30T05:49:30.000Z,998.8
2023-03-30T05:50:45.000Z,998.8
2023-03-30T05:52:00.000Z,998.8
2023-03-30T05:53:15.000Z,998.8
2023-03-30T05:54:32.249Z,998.8
2023-03-30T05:55:48.000Z,998.8
2023-03-30T05:57:04.000Z,998.8
2023-03-30T05:58:20.000Z,998.8
2023-03-30T05:59:36.840Z,998.7
2023-03-30T06:00:52.989Z,998.7
2023-03-30T06:02:08.000Z,998.7
2023-03-30T06:03:25.000Z,998.7
2023-03-30T06:04:41.426Z,998.6
2023-03-30T06:05:57.000Z,998.7
2023-03-30T06:07:13.719Z,998.6
2023-03-30T06:08:29.000Z,998.7
2023-03-30T06:09:44.000Z,998.7
2023-03-30T06:11:00.000Z,998.8
2023-03-30T06:12:17.000Z,998.7
2023-03-30T06:13:33.000Z,998.7
2023-03-30T06:14:49.000Z,998.7
2023-03-30T06:16:05.000Z,998.7
2023-03-30T06:17:21.000Z,998.7
2023-03-30T06:18:37.084Z,998.6
2023-03-30T06:19:52.000Z,998.6
2023-03-30T06:21:07.000Z,998.6
2023-03-30T06:22:22.000Z,998.6
2023-03-30T06:23:38.000Z,998.6
2023-03-30T06:24:54.872Z,998.6
2023-03-30T06:26:11.017Z,998.6
2023-03-30T06:27:26.000Z,998.6
2023-03-30T06:28:43.326Z,998.6
2023-03-30T06:29:59.000Z,998.6
2023-03-30T06:31:15.000Z,998.6
2023-03-30T06:32:31.000Z,998.7
2023-03-30T06:33:47.904Z,998.7
2023-03-30T06:35:03.000Z,998.7
2023-03-30T06:36:19.000Z,998.7
2023-03-30T06:37:36.338Z,998.7
2023-03-30T06:38:51.000Z,998.6
2023-03-30T06:40:07.000Z,998.6
2023-03-30T06:41:23.000Z,998.5
2023-03-30T06:42:39.949Z,998.5
2023-03-30T06:43:55.000Z,998.5
2023-03-30T06:45:12.000Z,998.4
2023-03-30T06:46:28.000Z,998.4
2023-03-30T06:47:43.000Z,998.4
2023-03-30T06:48:58.000Z,998.4
2023-03-30T06:50:14.000Z,998.5
2023-03-30T06:51:29.000Z,998.4
2023-03-30T06:52:44.000Z,998.4
2023-03-30T06:54:01.000Z,998.5
2023-03-30T06:55:17.000Z,998.5
2023-03-30T06:56:33.000Z,998.5
2023-03-30T06:57:49.000Z,998.5
2023-03-30T06:59:05.000Z,998.5
2023-03-30T07:00:21.000Z,998.5
2023-03-30T07:01:37.000Z,998.5
2023-03-30T07:02:54.368Z,998.5
2023-03-30T07:04:10.520Z,998.5
2023-03-30T07:05:26.000Z,998.5
2023-03-30T07:06:42.000Z,998.5
2023-03-30T07:07:58.000Z,998.4
2023-03-30T07:09:13.000Z,998.5
2023-03-30T07:10:30.000Z,998.4
2023-03-30T07:11:46.000Z,998.4
2023-03-30T07:13:02.000Z,998.4
2023-03-30T07:14:18.000Z,998.4
2023-03-30T07:15:34.000Z,998.3
2023-03-30T07:16:51.002Z,998.4
2023-03-30T07:18:05.000Z,998.4
2023-03-30T07:19:21.000Z,998.4
2023-03-30T07:20:36.000Z,998.4
2023-03-30T07:21:51.671Z,998.3
2023-03-30T07:23:07.000Z,998.4
2023-03-30T07:24:23.000Z,998.4
2023-03-30T07:25:39.000Z,998.3
2023-03-30T07:26:56.258Z,998.4
2023-03-30T07:28:12.408Z,998.4
2023-03-30T07:29:28.000Z,998.4
2023-03-30T07:30:44.000Z,998.3
2023-03-30T07:32:00.000Z,998.3
2023-03-30T07:33:16.000Z,998.2
2023-03-30T07:34:32.000Z,998.2
2023-03-30T07:35:49.000Z,998.3
2023-03-30T07:37:05.439Z,998.2
2023-03-30T07:38:20.593Z,998.2
2023-03-30T07:39:36.000Z,998.2
2023-03-30T07:42:08.000Z,998.1
2023-03-30T07:43:24.000Z,998.2
2023-03-30T07:44:41.000Z,998.2
2023-03-30T07:45:57.485Z,998.2
2023-03-30T07:48:29.000Z,998.3
2023-03-30T07:49:44.000Z,998.3
2023-03-30T07:50:59.000Z,998.4
2023-03-30T07:52:16.000Z,998.3
2023-03-30T07:53:32.000Z,998.4
2023-03-30T07:54:48.000Z,998.4
2023-03-30T07:56:04.000Z,998.4
2023-03-30T07:57:20.000Z,998.4
2023-03-30T07:58:36.000Z,998.4
2023-03-30T07:59:52.000Z,998.4
2023-03-30T08:01:09.285Z,998.4
2023-03-30T08:02:25.000Z,998.4
2023-03-30T08:03:41.000Z,998.3
2023-03-30T08:04:57.000Z,998.3
2023-03-30T08:06:13.000Z,998.3
2023-03-30T08:07:28.000Z,998.2
2023-03-30T08:08:44.000Z,998.3
2023-03-30T08:10:01.000Z,998.3
2023-03-30T08:11:17.467Z,998.2
2023-03-30T08:12:33.000Z,998.2
2023-03-30T08:13:49.000Z,998.3
2023-03-30T08:15:05.000Z,998.2
2023-03-30T08:16:20.000Z,998.3
2023-03-30T08:17:36.000Z,998.3
2023-03-30T08:18:51.000Z,998.3
2023-03-30T08:20:06.000Z,998.3
2023-03-30T08:21:22.000Z,998.3
2023-03-30T08:22:38.000Z,998.3
2023-03-30T08:23:54.000Z,998.3
2023-03-30T08:25:09.000Z,998.3
2023-03-30T08:26:25.000Z,998.3
2023-03-30T08:27:41.000Z,998.3
2023-03-30T08:28:57.000Z,998.3
2023-03-30T08:30:13.813Z,998.4
2023-03-30T08:31:29.943Z,998.2
2023-03-30T08:32:45.000Z,998.3
2023-03-30T08:35:18.000Z,998.3
2023-03-30T08:36:34.000Z,998.3
2023-03-30T08:37:50.678Z,998.3
2023-03-30T08:39:06.000Z,998.3
2023-03-30T08:40:22.968Z,998.3
2023-03-30T08:41:39.119Z,998.3
2023-03-30T08:42:54.283Z,998.4
2023-03-30T08:44:10.000Z,998.3
2023-03-30T08:45:26.577Z,998.3
2023-03-30T08:46:42.000Z,998.3
2023-03-30T08:47:58.000Z,998.4
2023-03-30T08:49:14.000Z,998.4
2023-03-30T08:50:30.000Z,998.4
2023-03-30T08:51:46.325Z,998.4
2023-03-30T08:53:01.000Z,998.4
2023-03-30T08:54:17.646Z,998.4
2023-03-30T08:55:32.000Z,998.4
2023-03-30T08:56:47.000Z,998.4
2023-03-30T08:58:03.000Z,998.3
2023-03-30T08:59:20.280Z,998.4
2023-03-30T09:00:36.000Z,998.4
2023-03-30T09:01:52.000Z,998.4
2023-03-30T09:03:08.723Z,998.4
2023-03-30T09:04:24.870Z,998.4
2023-03-30T09:05:41.014Z,998.3
2023-03-30T09:06:56.000Z,998.4
2023-03-30T09:08:13.000Z,998.4
2023-03-30T09:09:29.000Z,998.3
2023-03-30T09:10:45.000Z,998.4
2023-03-30T09:12:01.000Z,998.4
2023-03-30T09:13:16.000Z,998.3
2023-03-30T09:14:32.000Z,998.3
2023-03-30T09:15:49.205Z,998.3
2023-03-30T09:17:05.000Z,998.4
2023-03-30T09:18:21.000Z,998.3
2023-03-30T09:19:37.000Z,998.3
2023-03-30T09:20:53.789Z,998.3
2023-03-30T09:22:08.000Z,998.4
2023-03-30T09:23:24.125Z,998.3
2023-03-30T09:24:39.000Z,998.4
2023-03-30T09:25:54.000Z,998.2
2023-03-30T09:27:10.000Z,998.4
2023-03-30T09:28:26.000Z,998.3
2023-03-30T09:29:42.000Z,998.3
2023-03-30T09:30:59.048Z,998.3
2023-03-30T09:32:14.000Z,998.3
2023-03-30T09:33:31.000Z,998.4
2023-03-30T09:34:47.000Z,998.4
2023-03-30T09:36:03.000Z,998.4
2023-03-30T09:37:19.000Z,998.3
2023-03-30T09:38:35.000Z,998.4
2023-03-30T09:39:52.075Z,998.4
2023-03-30T09:41:07.000Z,998.4
2023-03-30T09:42:23.000Z,998.3
2023-03-30T09:43:39.000Z,998.3
2023-03-30T09:44:55.000Z,998.4
2023-03-30T09:46:11.000Z,998.4
2023-03-30T09:47:27.000Z,998.3
2023-03-30T09:48:43.000Z,998.3
2023-03-30T09:50:00.000Z,998.4
2023-03-30T09:51:15.000Z,998.4
2023-03-30T09:52:30.000Z,998.4
2023-03-30T09:53:45.000Z,998.3
2023-03-30T09:55:00.000Z,998.3
2023-03-30T09:56:16.000Z,998.4
2023-03-30T09:57:33.000Z,998.3
2023-03-30T09:58:49.000Z,998.4
2023-03-30T10:00:05.528Z,998.5
2023-03-30T10:01:21.000Z,998.4
2023-03-30T10:02:37.000Z,998.4
2023-03-30T10:03:53.000Z,998.4
2023-03-30T10:05:09.000Z,998.4
2023-03-30T10:06:26.000Z,998.4
2023-03-30T10:07:42.000Z,998.3
2023-03-30T10:08:58.000Z,998.3
2023-03-30T10:10:14.000Z,998.4
2023-03-30T10:11:29.000Z,998.4
2023-03-30T10:12:45.000Z,998.4
2023-03-30T10:14:01.000Z,998.3
2023-03-30T10:15:18.000Z,998.3
2023-03-30T10:16:34.000Z,998.3
2023-03-30T10:17:50.000Z,998.4
2023-03-30T10:19:06.000Z,998.3
2023-03-30T10:20:21.000Z,998.4
2023-03-30T10:21:36.000Z,998.4
2023-03-30T10:22:52.000Z,998.4
2023-03-30T10:24:08.000Z,998.3
2023-03-30T10:25:23.000Z,998.3
2023-03-30T10:26:39.000Z,998.2
2023-03-30T10:27:55.000Z,998.3
2023-03-30T10:29:11.000Z,998.4
2023-03-30T10:30:27.000Z,998.3
2023-03-30T10:31:44.000Z,998.4
2023-03-30T10:33:00.000Z,998.3
2023-03-30T10:34:16.000Z,998.3
2023-03-30T10:35:32.000Z,998.4
2023-03-30T10:36:48.000Z,998.3
2023-03-30T10:38:04.000Z,998.4
2023-03-30T10:39:20.000Z,998.5
2023-03-30T10:40:37.000Z,998.6
2023-03-30T10:41:52.000Z,998.6
2023-03-30T10:43:08.000Z,998.5
2023-03-30T10:44:24.000Z,998.4
2023-03-30T10:45:40.000Z,998.5
2023-03-30T10:46:56.000Z,998.5
2023-03-30T10:48:12.000Z,998.5
2023-03-30T10:49:29.000Z,998.4
2023-03-30T10:50:44.000Z,998.5
2023-03-30T10:51:59.000Z,998.4
2023-03-30T10:53:15.000Z,998.4
2023-03-30T10:54:31.000Z,998.4
2023-03-30T10:55:46.000Z,998.4
2023-03-30T10:57:02.000Z,998.5
2023-03-30T10:58:18.000Z,998.6
2023-03-30T10:59:34.000Z,998.4
2023-03-30T11:00:50.784Z,998.4
2023-03-30T11:02:06.000Z,998.5
2023-03-30T11:03:22.000Z,998.4
2023-03-30T11:04:38.000Z,998.5
2023-03-30T11:05:55.000Z,998.4
2023-03-30T11:07:11.000Z,998.4
2023-03-30T11:08:27.000Z,998.5
2023-03-30T11:09:43.000Z,998.4
2023-03-30T11:10:59.000Z,998.4
2023-03-30T11:12:15.000Z,998.5
2023-03-30T11:13:31.000Z,998.6
2023-03-30T11:14:47.000Z,998.5
2023-03-30T11:16:03.000Z,998.5
2023-03-30T11:17:19.000Z,998.6
2023-03-30T11:18:35.000Z,998.7
2023-03-30T11:19:51.000Z,998.7
2023-03-30T11:21:07.000Z,998.4
2023-03-30T11:22:23.000Z,998.6
2023-03-30T11:23:38.000Z,998.7
2023-03-30T11:24:53.644Z,998.6
2023-03-30T11:26:08.000Z,998.7
2023-03-30T11:27:24.000Z,998.7
2023-03-30T11:28:40.000Z,998.6
2023-03-30T11:29:57.000Z,998.7
2023-03-30T11:31:13.000Z,998.6
2023-03-30T11:32:29.000Z,998.6
2023-03-30T11:33:45.000Z,998.6
2023-03-30T11:35:01.000Z,998.6
2023-03-30T11:36:17.000Z,998.6
2023-03-30T11:37:34.141Z,998.9
2023-03-30T11:38:50.000Z,998.6
2023-03-30T11:40:06.000Z,998.6
2023-03-30T11:41:22.000Z,998.6
2023-03-30T11:42:37.000Z,998.6
2023-03-30T11:43:53.000Z,998.6
2023-03-30T11:45:09.000Z,998.6
2023-03-30T11:46:25.000Z,998.7
2023-03-30T11:47:42.000Z,998.7
2023-03-30T11:48:58.000Z,998.7
2023-03-30T11:50:14.624Z,998.7
2023-03-30T11:51:29.789Z,998.6
2023-03-30T11:52:44.000Z,998.7
2023-03-30T11:54:00.000Z,998.7
2023-03-30T11:55:16.271Z,998.7
2023-03-30T11:56:31.000Z,998.6
2023-03-30T11:57:47.000Z,998.8
2023-03-30T11:59:03.000Z,998.7
2023-03-30T12:00:19.000Z,998.7
2023-03-30T12:01:35.000Z,998.7
2023-03-30T12:02:51.000Z,998.8
2023-03-30T12:04:08.000Z,998.8
2023-03-30T12:05:24.000Z,998.8
2023-03-30T12:06:40.000Z,998.8
2023-03-30T12:07:56.000Z,998.7
2023-03-30T12:09:12.000Z,998.9
2023-03-30T12:10:28.000Z,998.9
2023-03-30T12:11:44.000Z,998.9
2023-03-30T12:13:00.000Z,999
2023-03-30T12:14:16.000Z,998.9
2023-03-30T12:15:32.000Z,999
2023-03-30T12:16:48.000Z,998.9
2023-03-30T12:18:04.000Z,998.9
2023-03-30T12:19:20.000Z,998.9
2023-03-30T12:20:37.000Z,998.9
2023-03-30T12:21:52.000Z,998.8
2023-03-30T12:23:07.000Z,998.9
2023-03-30T12:24:23.000Z,999
2023-03-30T12:25:39.000Z,998.9
2023-03-30T12:26:55.000Z,998.9
2023-03-30T12:28:11.000Z,999
2023-03-30T12:29:28.000Z,998.9
2023-03-30T12:30:44.000Z,999
2023-03-30T12:32:00.000Z,999
2023-03-30T12:33:16.000Z,998.9
2023-03-30T12:34:32.000Z,999
2023-03-30T12:35:49.055Z,999
2023-03-30T12:37:04.000Z,999
2023-03-30T12:38:21.000Z,999
2023-03-30T12:39:36.000Z,999
2023-03-30T12:40:52.000Z,999.1
2023-03-30T12:42:08.000Z,999.1
2023-03-30T12:43:24.956Z,999
2023-03-30T12:44:41.096Z,999
2023-03-30T12:45:57.247Z,999
2023-03-30T12:47:13.000Z,999.2
2023-03-30T12:48:28.000Z,999.1
2023-03-30T12:49:43.000Z,999.2
2023-03-30T12:50:58.000Z,999.2
2023-03-30T12:52:13.000Z,999.2
2023-03-30T12:53:29.000Z,999.1
2023-03-30T12:54:46.000Z,999.2
2023-03-30T12:56:02.000Z,999.1
2023-03-30T12:57:18.000Z,999.1
2023-03-30T12:58:34.000Z,999.1
2023-03-30T12:59:50.000Z,999.1
2023-03-30T13:01:06.000Z,999.2
2023-03-30T13:02:23.243Z,999.1
2023-03-30T13:03:39.000Z,999.1
2023-03-30T13:04:55.535Z,999.1
2023-03-30T13:06:10.000Z,999.2
2023-03-30T13:07:26.000Z,999.1
2023-03-30T13:08:42.000Z,999.2
2023-03-30T13:09:58.000Z,999.2
2023-03-30T13:11:15.000Z,999.1
2023-03-30T13:12:31.000Z,999.2
2023-03-30T13:13:47.000Z,999.2
2023-03-30T13:15:03.000Z,999.1
2023-03-30T13:16:19.000Z,999.2
2023-03-30T13:17:34.000Z,999.3
2023-03-30T13:18:50.218Z,999.2
2023-03-30T13:20:05.000Z,999.3
2023-03-30T13:21:20.000Z,999.2
2023-03-30T13:22:36.000Z,999.4
2023-03-30T13:23:52.000Z,999.3
2023-03-30T13:25:08.000Z,999.4
2023-03-30T13:26:24.000Z,999.3
2023-03-30T13:27:41.000Z,999.4
2023-03-30T13:28:57.000Z,999.2
2023-03-30T13:30:13.000Z,999.4
2023-03-30T13:31:29.000Z,999.2
2023-03-30T13:32:45.000Z,999.3
2023-03-30T13:34:01.000Z,999.2
2023-03-30T13:35:17.000Z,999.2
2023-03-30T13:36:34.000Z,999.2
2023-03-30T13:37:49.000Z,999.2
2023-03-30T13:39:05.000Z,999.1
2023-03-30T13:40:21.000Z,999.4
2023-03-30T13:41:37.000Z,999.2
2023-03-30T13:42:54.063Z,999.2
2023-03-30T13:44:09.000Z,999.2
2023-03-30T13:45:26.000Z,999.3
2023-03-30T13:46:41.534Z,999.4
2023-03-30T13:47:56.689Z,999.2
2023-03-30T13:49:11.000Z,999.1
2023-03-30T13:50:26.000Z,999.1
2023-03-30T13:51:42.000Z,999.2
2023-03-30T13:52:59.000Z,999.3
2023-03-30T13:54:15.000Z,999.2
2023-03-30T13:55:31.000Z,999.2
2023-03-30T13:56:47.000Z,999.1
2023-03-30T13:58:03.000Z,999.2
2023-03-30T13:59:19.000Z,999.3
2023-03-30T14:00:35.000Z,999.1
2023-03-30T14:01:52.000Z,999.1
2023-03-30T14:03:08.000Z,999.2
2023-03-30T14:04:24.000Z,999.1
2023-03-30T14:05:40.000Z,999.2
2023-03-30T14:08:11.000Z,999.1
2023-03-30T14:09:28.000Z,999.2
2023-03-30T14:10:44.403Z,999.2
2023-03-30T14:12:00.000Z,999.1
2023-03-30T14:13:16.000Z,999.1
2023-03-30T14:14:32.000Z,999
2023-03-30T14:15:48.000Z,999.1
2023-03-30T14:17:03.000Z,999.2
2023-03-30T14:18:19.000Z,999.2
2023-03-30T14:19:34.000Z,999.1
2023-03-30T14:20:49.000Z,999.1
2023-03-30T14:22:05.000Z,999.1
2023-03-30T14:23:21.954Z,999.1
2023-03-30T14:24:37.000Z,999.1
2023-03-30T14:25:54.247Z,999.1
2023-03-30T14:27:10.000Z,999.1
2023-03-30T14:28:26.000Z,999.1
2023-03-30T14:29:42.000Z,999
2023-03-30T14:30:58.000Z,999.1
2023-03-30T14:32:14.000Z,999.1
2023-03-30T14:33:30.000Z,999.1
2023-03-30T14:34:47.000Z,999.2
2023-03-30T14:36:03.000Z,999.2
2023-03-30T14:37:18.000Z,999.1
2023-03-30T14:38:34.000Z,999.1
2023-03-30T14:39:50.000Z,999.2
2023-03-30T14:41:06.000Z,999.3
2023-03-30T14:42:22.000Z,999.2
2023-03-30T14:43:39.000Z,999.3
2023-03-30T14:44:55.000Z,999.1
2023-03-30T14:46:10.000Z,999.1
2023-03-30T14:47:25.804Z,999.2
2023-03-30T14:48:41.000Z,999
2023-03-30T14:49:56.000Z,999
2023-03-30T14:51:12.000Z,999.1
2023-03-30T14:52:28.000Z,999.1
2023-03-30T14:53:44.000Z,999.1
2023-03-30T14:55:00.719Z,999.1
2023-03-30T14:56:16.000Z,999
2023-03-30T14:57:32.000Z,999.2
2023-03-30T14:58:48.000Z,999.2
2023-03-30T15:00:05.000Z,999.1
2023-03-30T15:01:21.000Z,999.1
2023-03-30T15:02:37.000Z,999.1
2023-03-30T15:03:53.000Z,999.2
2023-03-30T15:05:09.873Z,999.2
2023-03-30T15:06:25.000Z,999.4
2023-03-30T15:07:40.000Z,999.2
2023-03-30T15:08:57.326Z,999.1
2023-03-30T15:10:13.000Z,999.2
2023-03-30T15:11:29.000Z,999.2
2023-03-30T15:12:45.000Z,999.2
2023-03-30T15:14:01.000Z,999.2
2023-03-30T15:15:17.000Z,999.2
2023-03-30T15:16:32.000Z,999.2
2023-03-30T15:17:48.392Z,999.2
2023-03-30T15:19:04.000Z,999.2
2023-03-30T15:20:20.000Z,999.1
2023-03-30T15:21:35.000Z,999.2
2023-03-30T15:22:50.000Z,999.1
2023-03-30T15:24:06.000Z,999.2
2023-03-30T15:25:23.000Z,999.1
2023-03-30T15:26:39.000Z,999.1
2023-03-30T15:27:55.000Z,999.1
2023-03-30T15:29:11.000Z,999.1
2023-03-30T15:31:43.000Z,999.1
2023-03-30T15:32:59.000Z,999.1
2023-03-30T15:34:16.000Z,999.1
2023-03-30T15:35:32.000Z,999.1
2023-03-30T15:36:48.613Z,999.1
2023-03-30T15:38:04.000Z,999.1
2023-03-30T15:39:19.000Z,999
2023-03-30T15:40:36.062Z,999
2023-03-30T15:41:52.220Z,999.1
2023-03-30T15:43:08.000Z,999
2023-03-30T15:44:24.000Z,999.1
2023-03-30T15:45:40.000Z,999
2023-03-30T15:46:56.000Z,999
2023-03-30T15:48:12.938Z,999.1
2023-03-30T15:49:28.111Z,999.2
2023-03-30T15:50:43.000Z,998.9
2023-03-30T15:51:58.000Z,999.1
2023-03-30T15:53:13.000Z,999
2023-03-30T15:54:29.000Z,999.1
2023-03-30T15:55:45.000Z,999
2023-03-30T15:57:01.000Z,999.2
2023-03-30T15:58:17.000Z,999.1
2023-03-30T15:59:34.000Z,999.1
2023-03-30T16:00:50.000Z,999
2023-03-30T16:02:06.000Z,998.9
2023-03-30T16:03:22.774Z,998.9
2023-03-30T16:04:38.000Z,999
2023-03-30T16:05:55.064Z,999
2023-03-30T16:07:10.000Z,998.9
2023-03-30T16:08:27.000Z,998.9
2023-03-30T16:09:42.000Z,999
2023-03-30T16:10:58.000Z,998.9
2023-03-30T16:12:14.000Z,999
2023-03-30T16:13:30.000Z,998.9
2023-03-30T16:14:46.000Z,998.9
2023-03-30T16:16:03.000Z,999
2023-03-30T16:17:19.000Z,998.9
2023-03-30T16:18:34.000Z,999
2023-03-30T16:19:49.718Z,999
2023-03-30T16:21:05.000Z,999
2023-03-30T16:22:21.000Z,999